createdAt,value
2023-04-23T00:00:17.468Z,3.72
2023-04-23T00:01:14.291Z,3.80
2023-04-23T00:02:15.129Z,3.90
2023-04-23T00:03:14.935Z,4.10
2023-04-23T00:04:13.717Z,3.95
2023-04-23T00:05:13.046Z,3.97
2023-04-23T00:06:11.177Z,3.70
2023-04-23T00:07:09.127Z,3.80
2023-04-23T00:08:06.305Z,3.80
2023-04-23T00:09:04.108Z,3.97
2023-04-23T00:10:01.781Z,3.70
2023-04-23T00:10:58.702Z,3.53
2023-04-23T00:11:56.347Z,3.72
2023-04-23T00:12:53.232Z,4.13
2023-04-23T00:13:50.119Z,3.95
2023-04-23T00:14:47.011Z,3.95
2023-04-23T00:15:43.892Z,4.35
2023-04-23T00:16:41.103Z,3.80
2023-04-23T00:17:37.859Z,4.30
2023-04-23T00:18:35.512Z,3.88
2023-04-23T00:19:32.182Z,4.38
2023-04-23T00:20:28.990Z,3.50
2023-04-23T00:21:25.597Z,4.22
2023-04-23T00:22:22.219Z,3.72
2023-04-23T00:23:18.923Z,3.75
2023-04-23T00:24:15.543Z,4.25
2023-04-23T00:25:12.280Z,3.70
2023-04-23T00:26:08.955Z,3.80
2023-04-23T00:27:05.692Z,4.10
2023-04-23T00:28:02.325Z,4.13
2023-04-23T00:28:59.005Z,3.90
2023-04-23T00:29:55.751Z,3.40
2023-04-23T00:30:52.474Z,3.72
2023-04-23T00:31:49.271Z,3.80
2023-04-23T00:32:46.463Z,3.63
2023-04-23T00:33:43.119Z,3.97
2023-04-23T00:34:39.933Z,4.05
2023-04-23T00:35:36.693Z,3.85
2023-04-23T00:36:33.573Z,3.80
2023-04-23T00:37:30.271Z,3.75
2023-04-23T00:38:26.957Z,3.60
2023-04-23T00:39:23.583Z,3.63
2023-04-23T00:40:20.861Z,3.58
2023-04-23T00:41:18.750Z,3.97
2023-04-23T00:42:17.293Z,4.00
2023-04-23T00:43:15.519Z,4.07
2023-04-23T00:44:13.237Z,3.92
2023-04-23T00:45:10.244Z,3.70
2023-04-23T00:46:07.235Z,3.45
2023-04-23T00:47:04.286Z,3.33
2023-04-23T00:48:02.239Z,3.88
2023-04-23T00:49:00.415Z,3.67
2023-04-23T00:49:58.184Z,4.00
2023-04-23T00:51:05.131Z,3.63
2023-04-23T00:52:01.861Z,3.63
2023-04-23T00:52:58.748Z,3.70
2023-04-23T00:53:56.412Z,3.65
2023-04-23T00:54:53.079Z,3.80
2023-04-23T00:55:49.678Z,4.07
2023-04-23T00:56:46.411Z,3.97
2023-04-23T00:57:43.448Z,3.60
2023-04-23T00:58:40.872Z,5.13
2023-04-23T00:59:37.801Z,4.13
2023-04-23T01:00:41.944Z,3.95
2023-04-23T01:01:38.650Z,3.83
2023-04-23T01:02:37.624Z,4.25
2023-04-23T01:03:36.874Z,4.00
2023-04-23T01:04:34.922Z,3.97
2023-04-23T01:05:32.024Z,4.15
2023-04-23T01:06:28.879Z,4.07
2023-04-23T01:07:27.151Z,4.40
2023-04-23T01:08:25.925Z,4.20
2023-04-23T01:09:23.249Z,3.92
2023-04-23T01:10:21.452Z,4.07
2023-04-23T01:11:18.119Z,4.07
2023-04-23T01:12:15.599Z,4.40
2023-04-23T01:13:13.968Z,3.83
2023-04-23T01:14:11.541Z,4.28
2023-04-23T01:15:09.104Z,4.03
2023-04-23T01:16:06.599Z,3.85
2023-04-23T01:17:03.417Z,3.95
2023-04-23T01:18:00.301Z,4.30
2023-04-23T01:18:58.473Z,4.35
2023-04-23T01:19:55.062Z,3.90
2023-04-23T01:20:51.870Z,3.92
2023-04-23T01:21:50.084Z,3.92
2023-04-23T01:22:46.833Z,3.88
2023-04-23T01:23:43.627Z,4.05
2023-04-23T01:24:42.709Z,4.38
2023-04-23T01:25:40.054Z,4.53
2023-04-23T01:26:36.895Z,4.10
2023-04-23T01:27:36.030Z,4.38
2023-04-23T01:28:33.384Z,4.18
2023-04-23T01:29:31.203Z,3.97
2023-04-23T01:30:28.648Z,4.43
2023-04-23T01:31:26.151Z,4.43
2023-04-23T01:32:23.110Z,4.30
2023-04-23T01:33:20.205Z,4.38
2023-04-23T01:34:17.470Z,4.38
2023-04-23T01:35:14.509Z,4.40
2023-04-23T01:36:11.548Z,4.45
2023-04-23T01:37:09.196Z,4.20
2023-04-23T01:38:09.461Z,3.97
2023-04-23T01:39:06.126Z,4.28
2023-04-23T01:40:02.874Z,4.55
2023-04-23T01:40:59.593Z,5.25
2023-04-23T01:41:57.062Z,4.55
2023-04-23T01:42:54.354Z,4.65
2023-04-23T01:43:51.211Z,4.90
2023-04-23T01:44:47.872Z,4.57
2023-04-23T01:45:44.481Z,4.55
2023-04-23T01:46:41.947Z,4.30
2023-04-23T01:47:38.756Z,4.53
2023-04-23T01:48:35.727Z,4.55
2023-04-23T01:49:32.450Z,4.38
2023-04-23T01:50:30.108Z,4.88
2023-04-23T01:51:27.169Z,4.07
2023-04-23T01:52:23.872Z,4.95
2023-04-23T01:53:20.491Z,4.93
2023-04-23T01:54:17.190Z,4.63
2023-04-23T01:55:14.327Z,4.60
2023-04-23T01:56:11.690Z,4.70
2023-04-23T01:57:09.629Z,4.20
2023-04-23T01:58:06.611Z,5.03
2023-04-23T01:59:03.221Z,4.35
2023-04-23T02:00:14.861Z,5.18
2023-04-23T02:01:11.714Z,4.78
2023-04-23T02:02:11.156Z,5.38
2023-04-23T02:03:08.053Z,4.90
2023-04-23T02:04:05.276Z,4.68
2023-04-23T02:05:05.895Z,4.43
2023-04-23T02:06:05.013Z,4.97
2023-04-23T02:07:01.879Z,5.63
2023-04-23T02:07:58.518Z,4.40
2023-04-23T02:08:55.161Z,5.00
2023-04-23T02:09:51.862Z,5.22
2023-04-23T02:10:48.581Z,4.65
2023-04-23T02:11:45.395Z,5.60
2023-04-23T02:12:42.505Z,5.20
2023-04-23T02:13:39.112Z,5.43
2023-04-23T02:14:35.749Z,4.70
2023-04-23T02:15:32.667Z,4.70
2023-04-23T02:16:29.326Z,4.65
2023-04-23T02:17:29.389Z,4.43
2023-04-23T02:18:26.065Z,5.00
2023-04-23T02:19:22.719Z,4.93
2023-04-23T02:20:19.952Z,5.28
2023-04-23T02:21:16.603Z,4.75
2023-04-23T02:22:13.305Z,5.35
2023-04-23T02:23:10.289Z,5.07
2023-04-23T02:24:07.122Z,4.95
2023-04-23T02:25:04.045Z,5.32
2023-04-23T02:26:00.658Z,4.88
2023-04-23T02:26:58.107Z,4.97
2023-04-23T02:27:54.856Z,5.43
2023-04-23T02:28:51.609Z,5.90
2023-04-23T02:29:49.161Z,5.25
2023-04-23T02:30:47.925Z,5.20
2023-04-23T02:31:44.562Z,5.10
2023-04-23T02:32:43.152Z,5.13
2023-04-23T02:33:42.495Z,5.07
2023-04-23T02:34:39.379Z,4.88
2023-04-23T02:35:36.139Z,5.03
2023-04-23T02:36:32.814Z,5.47
2023-04-23T02:37:29.462Z,4.90
2023-04-23T02:38:26.141Z,5.32
2023-04-23T02:39:22.805Z,5.63
2023-04-23T02:40:19.409Z,5.18
2023-04-23T02:41:16.035Z,5.65
2023-04-23T02:42:13.557Z,5.38
2023-04-23T02:43:10.138Z,5.28
2023-04-23T02:44:07.169Z,4.82
2023-04-23T02:45:04.389Z,5.05
2023-04-23T02:46:07.920Z,5.53
2023-04-23T02:47:04.866Z,5.28
2023-04-23T02:48:01.623Z,5.43
2023-04-23T02:48:58.404Z,5.60
2023-04-23T02:49:55.060Z,5.68
2023-04-23T02:50:51.746Z,5.50
2023-04-23T02:51:48.534Z,6.65
2023-04-23T02:52:45.320Z,5.25
2023-04-23T02:53:41.973Z,5.40
2023-04-23T02:54:38.737Z,5.43
2023-04-23T02:55:35.629Z,5.35
2023-04-23T02:56:32.190Z,5.80
2023-04-23T02:57:28.782Z,5.35
2023-04-23T02:58:25.412Z,5.38
2023-04-23T02:59:22.021Z,5.13
2023-04-23T03:00:18.869Z,4.97
2023-04-23T03:01:16.084Z,4.88
2023-04-23T03:02:12.807Z,5.80
2023-04-23T03:03:11.871Z,5.63
2023-04-23T03:04:09.344Z,5.72
2023-04-23T03:05:07.481Z,5.90
2023-04-23T03:06:04.439Z,5.78
2023-04-23T03:07:01.142Z,5.82
2023-04-23T03:07:57.746Z,5.45
2023-04-23T03:08:54.372Z,5.65
2023-04-23T03:09:51.046Z,5.55
2023-04-23T03:10:47.658Z,5.70
2023-04-23T03:11:44.332Z,5.28
2023-04-23T03:12:41.052Z,6.07
2023-04-23T03:13:37.931Z,5.93
2023-04-23T03:14:34.632Z,5.60
2023-04-23T03:15:31.710Z,6.20
2023-04-23T03:16:29.838Z,5.60
2023-04-23T03:17:26.568Z,5.88
2023-04-23T03:18:23.533Z,5.47
2023-04-23T03:19:20.239Z,5.63
2023-04-23T03:20:16.906Z,5.45
2023-04-23T03:21:13.495Z,5.50
2023-04-23T03:22:10.298Z,5.72
2023-04-23T03:23:06.887Z,5.40
2023-04-23T03:24:03.610Z,4.97
2023-04-23T03:25:00.326Z,5.63
2023-04-23T03:25:57.023Z,5.63
2023-04-23T03:26:53.617Z,5.22
2023-04-23T03:27:50.204Z,5.45
2023-04-23T03:28:46.808Z,6.07
2023-04-23T03:29:43.389Z,5.68
2023-04-23T03:30:40.153Z,5.63
2023-04-23T03:31:36.930Z,5.78
2023-04-23T03:32:33.590Z,5.72
2023-04-23T03:33:30.331Z,6.32
2023-04-23T03:34:26.955Z,5.90
2023-04-23T03:35:24.531Z,6.20
2023-04-23T03:36:21.513Z,5.70
2023-04-23T03:37:18.140Z,6.00
2023-04-23T03:38:14.795Z,5.80
2023-04-23T03:39:11.414Z,5.90
2023-04-23T03:40:09.317Z,5.63
2023-04-23T03:41:06.203Z,5.80
2023-04-23T03:42:02.942Z,5.70
2023-04-23T03:42:59.798Z,5.18
2023-04-23T03:43:56.448Z,5.90
2023-04-23T03:44:53.025Z,6.10
2023-04-23T03:45:49.618Z,5.35
2023-04-23T03:46:46.214Z,6.07
2023-04-23T03:47:43.784Z,5.03
2023-04-23T03:48:40.714Z,6.03
2023-04-23T03:49:38.230Z,5.78
2023-04-23T03:50:38.949Z,6.22
2023-04-23T03:51:36.921Z,6.15
2023-04-23T03:52:33.998Z,6.90
2023-04-23T03:53:30.584Z,6.30
2023-04-23T03:54:28.301Z,6.38
2023-04-23T03:55:25.027Z,6.20
2023-04-23T03:56:21.710Z,5.60
2023-04-23T03:57:18.414Z,5.78
2023-04-23T03:58:15.028Z,6.55
2023-04-23T03:59:12.072Z,5.57
2023-04-23T04:00:10.249Z,6.45
2023-04-23T04:01:07.142Z,6.40
2023-04-23T04:02:06.756Z,6.00
2023-04-23T04:03:04.458Z,6.18
2023-04-23T04:04:01.567Z,5.68
2023-04-23T04:04:58.381Z,5.40
2023-04-23T04:05:55.226Z,5.55
2023-04-23T04:06:51.887Z,6.70
2023-04-23T04:07:48.565Z,5.75
2023-04-23T04:08:45.266Z,5.45
2023-04-23T04:09:41.894Z,6.40
2023-04-23T04:10:38.571Z,6.25
2023-04-23T04:11:35.764Z,5.82
2023-04-23T04:12:32.462Z,5.85
2023-04-23T04:13:29.127Z,6.05
2023-04-23T04:14:26.122Z,5.90
2023-04-23T04:15:22.887Z,5.88
2023-04-23T04:16:19.593Z,5.88
2023-04-23T04:17:16.350Z,6.10
2023-04-23T04:18:13.044Z,5.95
2023-04-23T04:19:10.165Z,6.20
2023-04-23T04:20:11.294Z,5.72
2023-04-23T04:21:08.016Z,6.32
2023-04-23T04:22:04.917Z,6.28
2023-04-23T04:23:01.484Z,6.63
2023-04-23T04:23:58.110Z,6.38
2023-04-23T04:24:54.746Z,6.78
2023-04-23T04:25:51.726Z,6.40
2023-04-23T04:26:49.321Z,6.25
2023-04-23T04:27:45.874Z,7.10
2023-04-23T04:28:42.560Z,7.70
2023-04-23T04:29:40.923Z,7.32
2023-04-23T04:30:38.381Z,6.95
2023-04-23T04:31:34.974Z,6.47
2023-04-23T04:32:32.586Z,6.70
2023-04-23T04:33:29.241Z,6.18
2023-04-23T04:34:26.328Z,6.70
2023-04-23T04:35:23.047Z,6.70
2023-04-23T04:36:19.651Z,6.78
2023-04-23T04:37:16.647Z,6.00
2023-04-23T04:38:13.257Z,6.10
2023-04-23T04:39:10.170Z,6.97
2023-04-23T04:40:08.057Z,6.60
2023-04-23T04:41:05.239Z,7.07
2023-04-23T04:42:02.981Z,6.85
2023-04-23T04:43:00.198Z,6.00
2023-04-23T04:43:58.671Z,6.72
2023-04-23T04:44:58.295Z,6.05
2023-04-23T04:45:54.891Z,6.32
2023-04-23T04:46:52.891Z,5.85
2023-04-23T04:47:49.649Z,5.95
2023-04-23T04:48:47.133Z,6.05
2023-04-23T04:49:43.828Z,5.97
2023-04-23T04:50:40.758Z,6.22
2023-04-23T04:51:38.220Z,6.07
2023-04-23T04:52:36.049Z,5.85
2023-04-23T04:53:32.742Z,5.75
2023-04-23T04:54:29.315Z,5.40
2023-04-23T04:55:27.224Z,5.32
2023-04-23T04:56:24.252Z,5.22
2023-04-23T04:57:22.891Z,5.20
2023-04-23T04:58:19.561Z,5.32
2023-04-23T04:59:16.529Z,5.70
2023-04-23T05:00:24.986Z,5.28
2023-04-23T05:01:24.752Z,4.72
2023-04-23T05:02:23.463Z,5.35
2023-04-23T05:03:20.636Z,5.30
2023-04-23T05:04:17.447Z,5.20
2023-04-23T05:05:14.196Z,5.80
2023-04-23T05:06:10.842Z,5.88
2023-04-23T05:07:07.554Z,5.47
2023-04-23T05:08:04.187Z,5.55
2023-04-23T05:09:00.781Z,5.78
2023-04-23T05:09:57.432Z,6.03
2023-04-23T05:10:54.413Z,5.93
2023-04-23T05:11:51.757Z,5.53
2023-04-23T05:12:48.376Z,5.90
2023-04-23T05:13:45.666Z,5.97
2023-04-23T05:14:42.440Z,5.75
2023-04-23T05:15:39.220Z,5.38
2023-04-23T05:16:35.903Z,5.43
2023-04-23T05:17:34.605Z,5.85
2023-04-23T05:18:31.255Z,5.57
2023-04-23T05:19:27.910Z,6.32
2023-04-23T05:20:24.576Z,6.03
2023-04-23T05:21:21.220Z,5.20
2023-04-23T05:22:18.412Z,5.43
2023-04-23T05:23:15.051Z,5.97
2023-04-23T05:24:11.701Z,6.05
2023-04-23T05:25:09.916Z,5.68
2023-04-23T05:26:06.617Z,5.75
2023-04-23T05:27:03.269Z,5.28
2023-04-23T05:27:59.919Z,5.60
2023-04-23T05:28:56.606Z,5.25
2023-04-23T05:29:53.247Z,4.57
2023-04-23T05:30:50.734Z,4.30
2023-04-23T05:31:47.444Z,4.65
2023-04-23T05:32:44.325Z,4.80
2023-04-23T05:33:49.343Z,4.40
2023-04-23T05:34:47.223Z,4.78
2023-04-23T05:35:43.848Z,4.30
2023-04-23T05:36:40.504Z,4.80
2023-04-23T05:37:37.086Z,4.20
2023-04-23T05:38:33.723Z,4.47
2023-04-23T05:39:30.461Z,4.25
2023-04-23T05:40:27.152Z,4.30
2023-04-23T05:41:23.776Z,4.28
2023-04-23T05:42:20.360Z,4.38
2023-04-23T05:43:16.993Z,4.82
2023-04-23T05:44:13.744Z,4.72
2023-04-23T05:45:10.825Z,4.40
2023-04-23T05:46:07.897Z,4.43
2023-04-23T05:47:05.324Z,4.80
2023-04-23T05:48:01.985Z,4.28
2023-04-23T05:48:58.689Z,4.57
2023-04-23T05:49:57.406Z,4.22
2023-04-23T05:50:53.989Z,4.43
2023-04-23T05:51:51.705Z,4.85
2023-04-23T05:52:48.365Z,4.88
2023-04-23T05:53:44.963Z,4.30
2023-04-23T05:54:42.533Z,4.82
2023-04-23T05:55:39.413Z,4.60
2023-04-23T05:56:36.312Z,4.88
2023-04-23T05:57:33.057Z,5.30
2023-04-23T05:58:29.637Z,4.90
2023-04-23T05:59:26.242Z,5.00
2023-04-23T06:00:22.913Z,5.20
2023-04-23T06:01:19.805Z,4.68
2023-04-23T06:02:16.596Z,4.80
2023-04-23T06:03:13.414Z,5.15
2023-04-23T06:04:10.394Z,5.18
2023-04-23T06:05:08.232Z,5.35
2023-04-23T06:06:05.102Z,5.53
2023-04-23T06:07:01.739Z,5.63
2023-04-23T06:07:58.452Z,5.03
2023-04-23T06:08:55.045Z,5.78
2023-04-23T06:09:51.668Z,5.60
2023-04-23T06:10:48.464Z,5.75
2023-04-23T06:11:45.143Z,6.13
2023-04-23T06:12:42.351Z,5.38
2023-04-23T06:13:43.434Z,6.68
2023-04-23T06:14:40.586Z,5.95
2023-04-23T06:15:37.280Z,5.93
2023-04-23T06:16:33.837Z,5.82
2023-04-23T06:17:30.582Z,5.97
2023-04-23T06:18:27.658Z,5.47
2023-04-23T06:19:27.957Z,5.18
2023-04-23T06:20:25.455Z,4.90
2023-04-23T06:21:23.034Z,5.40
2023-04-23T06:22:19.685Z,5.30
2023-04-23T06:23:16.628Z,5.03
2023-04-23T06:24:13.209Z,4.97
2023-04-23T06:25:10.021Z,4.82
2023-04-23T06:26:06.767Z,5.32
2023-04-23T06:27:03.544Z,4.45
2023-04-23T06:28:00.379Z,5.65
2023-04-23T06:28:56.995Z,5.57
2023-04-23T06:29:53.792Z,5.47
2023-04-23T06:30:50.557Z,6.22
2023-04-23T06:31:47.318Z,5.55
2023-04-23T06:32:44.095Z,5.93
2023-04-23T06:33:41.035Z,5.43
2023-04-23T06:34:44.007Z,5.55
2023-04-23T06:35:47.154Z,5.70
2023-04-23T06:36:44.088Z,5.85
2023-04-23T06:37:40.811Z,6.13
2023-04-23T06:38:38.071Z,6.05
2023-04-23T06:39:34.668Z,5.65
2023-04-23T06:40:31.247Z,6.30
2023-04-23T06:41:27.925Z,6.38
2023-04-23T06:42:24.513Z,6.22
2023-04-23T06:43:21.441Z,5.97
2023-04-23T06:44:18.117Z,5.82
2023-04-23T06:45:16.390Z,5.72
2023-04-23T06:46:12.952Z,5.72
2023-04-23T06:47:09.632Z,6.10
2023-04-23T06:48:06.838Z,5.53
2023-04-23T06:49:03.602Z,5.72
2023-04-23T06:50:00.382Z,5.88
2023-04-23T06:50:57.102Z,5.75
2023-04-23T06:51:54.532Z,5.57
2023-04-23T06:52:53.208Z,5.18
2023-04-23T06:53:49.866Z,5.72
2023-04-23T06:54:46.550Z,6.03
2023-04-23T06:55:43.105Z,6.80
2023-04-23T06:56:39.859Z,5.70
2023-04-23T06:57:36.457Z,5.50
2023-04-23T06:58:33.221Z,6.15
2023-04-23T06:59:29.898Z,5.85
2023-04-23T07:00:26.966Z,5.47
2023-04-23T07:01:23.704Z,5.63
2023-04-23T07:02:20.412Z,6.05
2023-04-23T07:03:17.609Z,5.68
2023-04-23T07:04:14.376Z,5.45
2023-04-23T07:05:11.316Z,5.40
2023-04-23T07:06:07.997Z,4.82
2023-04-23T07:07:04.765Z,5.20
2023-04-23T07:08:01.463Z,4.93
2023-04-23T07:08:58.098Z,5.10
2023-04-23T07:09:55.601Z,5.82
2023-04-23T07:10:53.356Z,5.28
2023-04-23T07:11:50.147Z,5.70
2023-04-23T07:12:48.418Z,5.60
2023-04-23T07:13:46.107Z,5.20
2023-04-23T07:14:43.682Z,5.40
2023-04-23T07:15:41.575Z,6.07
2023-04-23T07:16:38.383Z,6.20
2023-04-23T07:17:36.053Z,6.30
2023-04-23T07:18:32.693Z,6.20
2023-04-23T07:19:29.326Z,6.85
2023-04-23T07:20:26.260Z,7.07
2023-04-23T07:21:22.970Z,6.10
2023-04-23T07:22:19.661Z,6.63
2023-04-23T07:23:16.331Z,6.50
2023-04-23T07:24:12.873Z,6.63
2023-04-23T07:25:09.718Z,6.57
2023-04-23T07:26:06.372Z,7.00
2023-04-23T07:27:03.808Z,6.40
2023-04-23T07:28:00.688Z,6.93
2023-04-23T07:28:57.315Z,6.45
2023-04-23T07:29:53.900Z,5.78
2023-04-23T07:30:50.567Z,6.18
2023-04-23T07:31:48.291Z,6.18
2023-04-23T07:32:44.962Z,6.15
2023-04-23T07:33:41.597Z,6.60
2023-04-23T07:34:38.845Z,5.88
2023-04-23T07:35:35.502Z,5.55
2023-04-23T07:36:32.103Z,6.15
2023-04-23T07:37:28.740Z,6.57
2023-04-23T07:38:25.352Z,5.82
2023-04-23T07:39:22.394Z,6.15
2023-04-23T07:40:19.891Z,5.95
2023-04-23T07:41:17.248Z,6.30
2023-04-23T07:42:13.847Z,6.40
2023-04-23T07:43:10.806Z,5.93
2023-04-23T07:44:07.507Z,5.78
2023-04-23T07:45:04.565Z,5.53
2023-04-23T07:46:01.139Z,5.97
2023-04-23T07:46:57.758Z,6.18
2023-04-23T07:47:54.425Z,6.22
2023-04-23T07:48:52.121Z,5.43
2023-04-23T07:49:48.741Z,5.78
2023-04-23T07:50:45.514Z,6.07
2023-04-23T07:51:42.288Z,6.20
2023-04-23T07:52:39.329Z,6.00
2023-04-23T07:53:35.899Z,6.00
2023-04-23T07:54:32.579Z,6.10
2023-04-23T07:55:29.243Z,5.88
2023-04-23T07:56:26.012Z,5.85
2023-04-23T07:57:22.632Z,5.28
2023-04-23T07:58:19.377Z,6.03
2023-04-23T07:59:15.973Z,6.03
2023-04-23T08:00:13.480Z,6.47
2023-04-23T08:01:10.182Z,5.63
2023-04-23T08:02:07.090Z,6.10
2023-04-23T08:03:03.982Z,6.80
2023-04-23T08:04:01.000Z,6.18
2023-04-23T08:04:57.899Z,5.70
2023-04-23T08:05:54.643Z,5.72
2023-04-23T08:06:52.152Z,5.93
2023-04-23T08:07:48.727Z,5.70
2023-04-23T08:08:45.364Z,5.95
2023-04-23T08:09:42.674Z,6.15
2023-04-23T08:10:39.288Z,5.55
2023-04-23T08:11:35.880Z,5.97
2023-04-23T08:12:35.884Z,6.20
2023-04-23T08:13:32.784Z,6.47
2023-04-23T08:14:29.354Z,5.90
2023-04-23T08:15:25.917Z,6.13
2023-04-23T08:16:25.196Z,6.15
2023-04-23T08:17:21.879Z,6.10
2023-04-23T08:18:18.545Z,6.18
2023-04-23T08:19:15.146Z,5.93
2023-04-23T08:20:11.916Z,6.28
2023-04-23T08:21:08.770Z,6.32
2023-04-23T08:22:05.862Z,6.55
2023-04-23T08:23:02.595Z,5.93
2023-04-23T08:23:59.472Z,6.00
2023-04-23T08:24:56.151Z,6.55
2023-04-23T08:25:52.728Z,6.47
2023-04-23T08:26:49.855Z,6.00
2023-04-23T08:27:46.888Z,6.20
2023-04-23T08:28:43.457Z,6.32
2023-04-23T08:29:40.315Z,5.88
2023-04-23T08:30:37.160Z,5.70
2023-04-23T08:31:34.237Z,5.63
2023-04-23T08:32:30.889Z,6.68
2023-04-23T08:33:27.756Z,6.47
2023-04-23T08:34:24.367Z,6.25
2023-04-23T08:35:22.196Z,5.95
2023-04-23T08:36:18.761Z,6.13
2023-04-23T08:37:27.270Z,5.97
2023-04-23T08:38:26.883Z,6.07
2023-04-23T08:39:23.515Z,5.40
2023-04-23T08:40:20.551Z,5.90
2023-04-23T08:41:19.181Z,6.05
2023-04-23T08:42:23.864Z,5.90
2023-04-23T08:43:21.111Z,5.68
2023-04-23T08:44:26.198Z,6.03
2023-04-23T08:45:24.133Z,5.70
2023-04-23T08:46:23.237Z,5.85
2023-04-23T08:47:25.386Z,5.22
2023-04-23T08:48:22.363Z,5.90
2023-04-23T08:49:19.618Z,6.88
2023-04-23T08:50:19.892Z,6.85
2023-04-23T08:51:19.992Z,6.82
2023-04-23T08:52:20.567Z,5.68
2023-04-23T08:53:20.030Z,6.22
2023-04-23T08:54:22.771Z,5.70
2023-04-23T08:55:21.273Z,6.13
2023-04-23T08:56:18.680Z,6.15
2023-04-23T08:57:17.876Z,6.00
2023-04-23T08:58:15.256Z,5.93
2023-04-23T08:59:12.148Z,6.13
2023-04-23T09:00:11.002Z,5.32
2023-04-23T09:01:08.169Z,6.45
2023-04-23T09:02:09.983Z,6.05
2023-04-23T09:03:07.622Z,5.93
2023-04-23T09:04:05.083Z,5.60
2023-04-23T09:05:04.470Z,5.25
2023-04-23T09:06:01.934Z,6.03
2023-04-23T09:06:58.932Z,5.60
2023-04-23T09:07:56.794Z,5.82
2023-04-23T09:08:55.520Z,5.80
2023-04-23T09:09:52.190Z,6.53
2023-04-23T09:10:50.543Z,6.03
2023-04-23T09:11:47.146Z,6.22
2023-04-23T09:12:45.270Z,6.18
2023-04-23T09:13:42.057Z,5.88
2023-04-23T09:14:38.720Z,5.80
2023-04-23T09:15:38.806Z,5.80
2023-04-23T09:16:36.134Z,5.80
2023-04-23T09:17:34.277Z,6.13
2023-04-23T09:18:31.443Z,6.00
2023-04-23T09:19:28.466Z,5.97
2023-04-23T09:20:25.272Z,5.43
2023-04-23T09:21:21.937Z,5.97
2023-04-23T09:22:41.538Z,6.07
2023-04-23T09:23:39.575Z,6.32
2023-04-23T09:24:36.251Z,5.88
2023-04-23T09:25:34.921Z,5.35
2023-04-23T09:26:31.482Z,5.70
2023-04-23T09:27:28.052Z,5.97
2023-04-23T09:28:37.658Z,6.20
2023-04-23T09:29:34.230Z,5.82
2023-04-23T09:30:31.077Z,6.10
2023-04-23T09:31:28.098Z,6.20
2023-04-23T09:32:33.563Z,6.47
2023-04-23T09:33:31.097Z,5.55
2023-04-23T09:34:27.767Z,5.35
2023-04-23T09:35:28.181Z,5.93
2023-04-23T09:36:24.773Z,5.60
2023-04-23T09:37:25.910Z,6.32
2023-04-23T09:38:22.585Z,5.57
2023-04-23T09:39:23.919Z,5.75
2023-04-23T09:40:24.003Z,5.97
2023-04-23T09:41:28.334Z,5.40
2023-04-23T09:42:27.539Z,5.68
2023-04-23T09:43:24.144Z,6.00
2023-04-23T09:44:22.850Z,6.13
2023-04-23T09:45:20.083Z,5.85
2023-04-23T09:46:16.828Z,5.90
2023-04-23T09:47:15.806Z,5.97
2023-04-23T09:48:12.467Z,5.72
2023-04-23T09:49:11.058Z,5.60
2023-04-23T09:50:10.574Z,5.28
2023-04-23T09:51:07.246Z,5.30
2023-04-23T09:52:07.269Z,5.72
2023-04-23T09:53:08.322Z,5.60
2023-04-23T09:54:10.670Z,5.30
2023-04-23T09:55:08.155Z,5.57
2023-04-23T09:56:04.913Z,5.15
2023-04-23T09:57:02.950Z,4.63
2023-04-23T09:57:59.850Z,4.50
2023-04-23T09:58:56.463Z,5.20
2023-04-23T10:00:00.408Z,5.03
2023-04-23T10:01:09.258Z,5.22
2023-04-23T10:02:07.913Z,4.72
2023-04-23T10:03:07.001Z,4.93
2023-04-23T10:04:03.956Z,4.90
2023-04-23T10:05:14.224Z,5.10
2023-04-23T10:06:39.637Z,4.80
2023-04-23T10:07:35.163Z,4.57
2023-04-23T10:08:32.533Z,4.32
2023-04-23T10:09:29.960Z,4.45
2023-04-23T10:10:26.743Z,3.88
2023-04-23T10:11:25.716Z,4.15
2023-04-23T10:13:22.538Z,3.80
2023-04-23T10:14:22.543Z,4.40
2023-04-23T10:15:19.335Z,3.88
2023-04-23T10:16:23.323Z,4.10
2023-04-23T10:17:22.661Z,3.53
2023-04-23T10:18:20.692Z,4.28
2023-04-23T10:19:22.987Z,3.85
2023-04-23T10:20:21.848Z,3.92
2023-04-23T10:21:19.978Z,3.90
2023-04-23T10:22:20.051Z,4.00
2023-04-23T10:23:19.604Z,3.65
2023-04-23T10:24:20.826Z,4.10
2023-04-23T10:25:20.208Z,4.20
2023-04-23T10:26:17.334Z,4.45
2023-04-23T10:27:26.945Z,3.53
2023-04-23T10:28:33.822Z,3.50
2023-04-23T10:29:32.245Z,3.90
2023-04-23T10:30:29.313Z,3.53
2023-04-23T10:31:27.562Z,4.63
2023-04-23T10:32:25.587Z,3.42
2023-04-23T10:34:26.479Z,3.00
2023-04-23T10:35:23.160Z,2.65
2023-04-23T10:36:20.694Z,2.30
2023-04-23T10:37:19.492Z,3.10
2023-04-23T10:38:16.403Z,3.20
2023-04-23T10:39:20.781Z,3.53
2023-04-23T10:40:32.529Z,3.47
2023-04-23T10:41:36.561Z,4.03
2023-04-23T10:42:33.247Z,4.60
2023-04-23T10:43:30.023Z,3.95
2023-04-23T10:44:56.680Z,4.80
2023-04-23T10:45:53.889Z,4.38
2023-04-23T10:46:58.539Z,4.32
2023-04-23T10:47:56.265Z,4.60
2023-04-23T10:49:11.127Z,4.65
2023-04-23T10:50:27.983Z,4.40
2023-04-23T10:52:14.658Z,4.95
2023-04-23T10:52:54.551Z,4.55
2023-04-23T10:53:52.055Z,4.40
2023-04-23T10:54:56.544Z,4.07
2023-04-23T10:56:06.788Z,4.20
2023-04-23T10:57:07.451Z,4.05
2023-04-23T10:58:08.447Z,3.88
2023-04-23T10:59:18.019Z,4.60
2023-04-23T11:00:15.887Z,3.70
2023-04-23T11:01:12.888Z,3.50
2023-04-23T11:02:11.968Z,3.65
2023-04-23T11:03:45.462Z,3.60
2023-04-23T11:04:46.585Z,3.92
2023-04-23T11:05:45.167Z,4.20
2023-04-23T11:06:47.708Z,3.92
2023-04-23T11:08:11.070Z,3.88
2023-04-23T11:09:41.533Z,3.80
2023-04-23T11:11:08.594Z,3.70
2023-04-23T11:12:21.143Z,3.90
2023-04-23T11:13:24.140Z,3.22
2023-04-23T11:14:20.874Z,3.50
2023-04-23T11:15:19.537Z,3.92
2023-04-23T11:16:23.946Z,3.45
2023-04-23T11:17:44.628Z,3.92
2023-04-23T11:19:03.852Z,3.67
2023-04-23T11:20:11.794Z,3.80
2023-04-23T11:21:08.477Z,3.53
2023-04-23T11:22:18.589Z,3.83
2023-04-23T11:23:34.117Z,3.28
2023-04-23T11:24:44.573Z,4.10
2023-04-23T11:25:43.854Z,3.80
2023-04-23T11:26:42.897Z,3.97
2023-04-23T11:27:44.193Z,3.83
2023-04-23T11:28:43.753Z,3.50
2023-04-23T11:29:43.144Z,4.00
2023-04-23T11:30:39.975Z,3.45
2023-04-23T11:31:38.195Z,3.53
2023-04-23T11:32:37.510Z,3.70
2023-04-23T11:33:34.175Z,4.20
2023-04-23T11:34:32.263Z,4.10
2023-04-23T11:35:30.435Z,3.97
2023-04-23T11:36:27.656Z,3.60
2023-04-23T11:37:25.423Z,3.60
2023-04-23T11:38:22.408Z,3.65
2023-04-23T11:39:19.697Z,3.88
2023-04-23T11:40:21.107Z,3.75
2023-04-23T11:41:23.379Z,3.90
2023-04-23T11:42:20.357Z,3.88
2023-04-23T11:43:21.158Z,3.90
2023-04-23T11:44:18.820Z,3.45
2023-04-23T11:45:20.559Z,3.70
2023-04-23T11:46:17.170Z,3.67
2023-04-23T11:47:16.723Z,3.58
2023-04-23T11:48:13.383Z,3.55
2023-04-23T11:49:10.370Z,3.38
2023-04-23T11:50:08.701Z,3.28
2023-04-23T11:51:05.323Z,3.33
2023-04-23T11:52:02.230Z,3.50
2023-04-23T11:53:06.338Z,3.90
2023-04-23T11:54:04.521Z,3.72
2023-04-23T11:55:06.687Z,3.42
2023-04-23T11:56:05.241Z,4.18
2023-04-23T11:57:04.757Z,4.00
2023-04-23T11:58:01.380Z,3.40
2023-04-23T11:59:05.330Z,3.58
2023-04-23T12:00:12.322Z,3.72
2023-04-23T12:01:11.745Z,3.20
2023-04-23T12:02:08.396Z,3.30
2023-04-23T12:03:06.598Z,3.13
2023-04-23T12:04:10.722Z,2.85
2023-04-23T12:05:09.340Z,3.00
2023-04-23T12:06:06.553Z,2.70
2023-04-23T12:07:10.157Z,3.13
2023-04-23T12:08:18.126Z,3.08
2023-04-23T12:09:16.664Z,2.65
2023-04-23T12:10:18.176Z,3.00
2023-04-23T12:11:15.300Z,2.55
2023-04-23T12:12:11.911Z,2.65
2023-04-23T12:13:14.349Z,2.75
2023-04-23T12:15:08.757Z,2.88
2023-04-23T12:16:06.227Z,3.58
2023-04-23T12:17:10.512Z,3.03
2023-04-23T12:18:11.124Z,2.92
2023-04-23T12:19:28.940Z,3.00
2023-04-23T12:20:25.679Z,3.03
2023-04-23T12:21:23.847Z,3.05
2023-04-23T12:22:28.337Z,2.97
2023-04-23T12:23:28.257Z,3.00
2023-04-23T12:24:30.433Z,2.67
2023-04-23T12:25:27.186Z,2.90
2023-04-23T12:26:25.790Z,2.55
2023-04-23T12:27:22.958Z,2.58
2023-04-23T12:28:23.936Z,2.75
2023-04-23T12:29:24.761Z,2.80
2023-04-23T12:30:21.649Z,2.50
2023-04-23T12:31:27.777Z,2.60
2023-04-23T12:32:24.530Z,2.53
2023-04-23T12:33:21.161Z,2.92
2023-04-23T12:34:18.980Z,2.70
2023-04-23T12:35:15.743Z,2.55
2023-04-23T12:36:16.281Z,2.50
2023-04-23T12:37:13.404Z,2.45
2023-04-23T12:38:27.229Z,2.75
2023-04-23T12:39:23.900Z,2.35
2023-04-23T12:40:21.924Z,2.90
2023-04-23T12:41:18.562Z,3.05
2023-04-23T12:42:15.397Z,2.60
2023-04-23T12:43:12.090Z,2.92
2023-04-23T12:44:08.679Z,2.70
2023-04-23T12:45:07.477Z,2.83
2023-04-23T12:46:04.061Z,2.95
2023-04-23T12:47:03.606Z,3.10
2023-04-23T12:48:00.494Z,3.28
2023-04-23T12:48:57.165Z,2.90
2023-04-23T12:49:55.622Z,2.70
2023-04-23T12:50:52.304Z,2.42
2023-04-23T12:51:49.292Z,2.72
2023-04-23T12:52:45.980Z,2.65
2023-04-23T12:53:43.205Z,2.70
2023-04-23T12:54:40.968Z,2.90
2023-04-23T12:55:39.442Z,2.70
2023-04-23T12:56:37.778Z,3.33
2023-04-23T12:57:34.454Z,2.92
2023-04-23T12:58:31.568Z,2.97
2023-04-23T12:59:28.778Z,3.20